sensor_id;sensor_type;location;lat;lon;timestamp;pressure;altitude;pressure_sealevel;temperature;humidity
73422;BME280;61637;47.760;-122.022;2023-06-26T00:00:00;101930.339;;;24.7;48.0
73422;BME280;61637;47.760;-122.022;2023-06-26T00:02:00;101930.339;;;24.7;48.0
73422;BME280;61637;47.760;-122.022;2023-06-26T00:04:00;101930.339;;;24.7;48.0
73422;BME280;61637;47.760;-122.022;2023-06-26T00:06:01;101930.339;;;24.7;48.0
73422;BME280;61637;47.760;-122.022;2023-06-26T00:08:00;101930.339;;;24.7;48.0
73422;BME280;61637;47.760;-122.022;2023-06-26T00:10:01;101930.339;;;24.7;48.0
73422;BME280;61637;47.760;-122.022;2023-06-26T00:12:00;101930.339;;;24.7;48.0
73422;BME280;61637;47.760;-122.022;2023-06-26T00:14:00;101930.339;;;24.7;48.0
73422;BME280;61637;47.760;-122.022;2023-06-26T00:16:00;101930.339;;;24.7;48.0
73422;BME280;61637;47.760;-122.022;2023-06-26T00:18:01;101930.339;;;24.8;48.0
73422;BME280;61637;47.760;-122.022;2023-06-26T00:20:00;101930.339;;;24.7;48.0
73422;BME280;61637;47.760;-122.022;2023-06-26T00:22:00;101930.339;;;24.8;48.0
73422;BME280;61637;47.760;-122.022;2023-06-26T00:24:00;101930.339;;;24.8;48.0
73422;BME280;61637;47.760;-122.022;2023-06-26T00:26:00;101930.339;;;24.9;48.0
73422;BME280;61637;47.760;-122.022;2023-06-26T00:28:00;101930.339;;;24.9;48.0
73422;BME280;61637;47.760;-122.022;2023-06-26T00:30:01;101930.339;;;25.1;48.0
73422;BME280;61637;47.760;-122.022;2023-06-26T00:32:00;101930.339;;;25.1;48.0
73422;BME280;61637;47.760;-122.022;2023-06-26T00:34:00;101930.339;;;25.2;48.0
73422;BME280;61637;47.760;-122.022;2023-06-26T00:36:00;101930.339;;;25.2;48.0
73422;BME280;61637;47.760;-122.022;2023-06-26T00:38:00;101930.339;;;25.2;48.0
73422;BME280;61637;47.760;-122.022;2023-06-26T00:40:00;101930.339;;;25.2;48.0
73422;BME280;61637;47.760;-122.022;2023-06-26T00:42:01;101930.339;;;25.2;48.0
73422;BME280;61637;47.760;-122.022;2023-06-26T00:44:00;101930.339;;;25.3;48.0
73422;BME280;61637;47.760;-122.022;2023-06-26T00:46:00;101930.339;;;25.4;48.0
73422;BME280;61637;47.760;-122.022;2023-06-26T00:48:01;101930.339;;;25.6;48.0
73422;BME280;61637;47.760;-122.022;2023-06-26T00:50:00;101591.7;;;25.7;48.0
73422;BME280;61637;47.760;-122.022;2023-06-26T00:52:00;101591.7;;;25.8;48.0
73422;BME280;61637;47.760;-122.022;2023-06-26T00:54:01;101930.339;;;25.9;48.0
73422;BME280;61637;47.760;-122.022;2023-06-26T00:56:00;101591.7;;;25.9;48.0
73422;BME280;61637;47.760;-122.022;2023-06-26T00:58:00;101591.7;;;25.8;48.0
73422;BME280;61637;47.760;-122.022;2023-06-26T01:00:01;101930.339;;;25.8;48.0
73422;BME280;61637;47.760;-122.022;2023-06-26T01:02:00;101930.339;;;25.7;48.0
73422;BME280;61637;47.760;-122.022;2023-06-26T01:04:00;101930.339;;;25.5;48.0
73422;BME280;61637;47.760;-122.022;2023-06-26T01:06:01;101930.339;;;25.6;48.0
73422;BME280;61637;47.760;-122.022;2023-06-26T01:08:00;101591.7;;;25.5;48.0
73422;BME280;61637;47.760;-122.022;2023-06-26T01:10:00;101930.339;;;25.5;48.0
73422;BME280;61637;47.760;-122.022;2023-06-26T01:12:00;101591.7;;;25.5;48.0
73422;BME280;61637;47.760;-122.022;2023-06-26T01:14:00;101930.339;;;25.6;48.0
73422;BME280;61637;47.760;-122.022;2023-06-26T01:16:00;101930.339;;;25.5;48.0
73422;BME280;61637;47.760;-122.022;2023-06-26T01:18:01;101591.7;;;25.5;48.0
73422;BME280;61637;47.760;-122.022;2023-06-26T01:20:01;101591.7;;;25.5;48.0
73422;BME280;61637;47.760;-122.022;2023-06-26T01:22:02;101591.7;;;25.5;48.0
73422;BME280;61637;47.760;-122.022;2023-06-26T01:24:07;101591.7;;;25.4;48.0
73422;BME280;61637;47.760;-122.022;2023-06-26T01:26:09;101591.7;;;25.4;48.0
73422;BME280;61637;47.760;-122.022;2023-06-26T01:28:00;101591.7;;;25.5;48.0
73422;BME280;61637;47.760;-122.022;2023-06-26T01:30:02;101591.7;;;25.4;48.0
73422;BME280;61637;47.760;-122.022;2023-06-26T01:32:00;101591.7;;;25.3;48.0
73422;BME280;61637;47.760;-122.022;2023-06-26T01:34:00;101591.7;;;25.2;48.0
73422;BME280;61637;47.760;-122.022;2023-06-26T01:36:00;101591.7;;;25.1;48.0
73422;BME280;61637;47.760;-122.022;2023-06-26T01:40:00;101591.7;;;24.8;48.0
73422;BME280;61637;47.760;-122.022;2023-06-26T01:42:01;101591.7;;;24.8;48.0
73422;BME280;61637;47.760;-122.022;2023-06-26T01:44:03;101591.7;;;24.7;48.0
73422;BME280;61637;47.760;-122.022;2023-06-26T01:46:01;101591.7;;;24.6;48.0
73422;BME280;61637;47.760;-122.022;2023-06-26T01:48:00;101591.7;;;24.4;48.0
73422;BME280;61637;47.760;-122.022;2023-06-26T01:50:02;101591.7;;;24.2;48.0
73422;BME280;61637;47.760;-122.022;2023-06-26T01:52:03;101930.339;;;24.1;48.0
73422;BME280;61637;47.760;-122.022;2023-06-26T01:54:01;101591.7;;;23.9;48.0
73422;BME280;61637;47.760;-122.022;2023-06-26T01:56:03;101930.339;;;23.8;48.0
73422;BME280;61637;47.760;-122.022;2023-06-26T01:58:00;101591.7;;;23.7;48.0
73422;BME280;61637;47.760;-122.022;2023-06-26T02:00:00;101930.339;;;23.6;48.0
73422;BME280;61637;47.760;-122.022;2023-06-26T02:02:00;101930.339;;;23.6;48.0
73422;BME280;61637;47.760;-122.022;2023-06-26T02:04:00;101930.339;;;23.5;48.0
73422;BME280;61637;47.760;-122.022;2023-06-26T02:06:01;101591.7;;;23.4;48.0
73422;BME280;61637;47.760;-122.022;2023-06-26T02:08:00;101930.339;;;23.3;48.0
73422;BME280;61637;47.760;-122.022;2023-06-26T02:10:00;101930.339;;;23.2;48.0
73422;BME280;61637;47.760;-122.022;2023-06-26T02:12:00;101930.339;;;23.2;48.0
73422;BME280;61637;47.760;-122.022;2023-06-26T02:14:00;101930.339;;;23.1;48.0
73422;BME280;61637;47.760;-122.022;2023-06-26T02:16:00;101930.339;;;23.1;48.0
73422;BME280;61637;47.760;-122.022;2023-06-26T02:18:01;101930.339;;;23.0;48.0
73422;BME280;61637;47.760;-122.022;2023-06-26T02:20:00;101930.339;;;23.0;48.0
73422;BME280;61637;47.760;-122.022;2023-06-26T02:22:00;101930.339;;;22.9;48.0
73422;BME280;61637;47.760;-122.022;2023-06-26T02:24:00;101930.339;;;22.8;48.0
73422;BME280;61637;47.760;-122.022;2023-06-26T02:26:00;101930.339;;;22.8;48.0
73422;BME280;61637;47.760;-122.022;2023-06-26T02:28:00;101930.339;;;22.7;48.0
73422;BME280;61637;47.760;-122.022;2023-06-26T02:30:01;101930.339;;;22.6;48.0
73422;BME280;61637;47.760;-122.022;2023-06-26T02:32:00;101930.339;;;22.6;48.0
73422;BME280;61637;47.760;-122.022;2023-06-26T02:34:00;101930.339;;;22.4;48.0
73422;BME280;61637;47.760;-122.022;2023-06-26T02:36:00;101930.339;;;22.3;48.0
73422;BME280;61637;47.760;-122.022;2023-06-26T02:38:00;101930.339;;;22.3;48.0
73422;BME280;61637;47.760;-122.022;2023-06-26T02:40:00;101930.339;;;22.2;48.0
73422;BME280;61637;47.760;-122.022;2023-06-26T02:42:01;101930.339;;;22.1;48.0
73422;BME280;61637;47.760;-122.022;2023-06-26T02:44:00;101930.339;;;22.0;48.0
73422;BME280;61637;47.760;-122.022;2023-06-26T02:46:00;101591.7;;;21.9;48.0
73422;BME280;61637;47.760;-122.022;2023-06-26T02:48:00;101591.7;;;21.9;48.0
73422;BME280;61637;47.760;-122.022;2023-06-26T02:50:00;101930.339;;;21.9;48.0
73422;BME280;61637;47.760;-122.022;2023-06-26T02:52:00;101930.339;;;21.9;48.0
73422;BME280;61637;47.760;-122.022;2023-06-26T02:54:01;101930.339;;;21.9;48.0
73422;BME280;61637;47.760;-122.022;2023-06-26T02:56:00;101930.339;;;21.8;48.0
73422;BME280;61637;47.760;-122.022;2023-06-26T02:58:00;101930.339;;;21.7;48.0
73422;BME280;61637;47.760;-122.022;2023-06-26T03:00:00;101930.339;;;21.6;48.0
73422;BME280;61637;47.760;-122.022;2023-06-26T03:02:00;101930.339;;;21.6;48.0
73422;BME280;61637;47.760;-122.022;2023-06-26T03:04:00;101591.7;;;21.4;48.0
73422;BME280;61637;47.760;-122.022;2023-06-26T03:06:01;101930.339;;;21.3;48.0
73422;BME280;61637;47.760;-122.022;2023-06-26T03:08:01;101930.339;;;21.3;48.0
73422;BME280;61637;47.760;-122.022;2023-06-26T03:10:00;101591.7;;;21.2;48.0
73422;BME280;61637;47.760;-122.022;2023-06-26T03:12:00;101930.339;;;21.2;48.0
73422;BME280;61637;47.760;-122.022;2023-06-26T03:14:00;101930.339;;;21.1;48.0
73422;BME280;61637;47.760;-122.022;2023-06-26T03:16:00;101930.339;;;21.0;48.0
73422;BME280;61637;47.760;-122.022;2023-06-26T03:18:01;101930.339;;;20.9;48.0
73422;BME280;61637;47.760;-122.022;2023-06-26T03:20:00;101930.339;;;20.9;48.0
73422;BME280;61637;47.760;-122.022;2023-06-26T03:22:00;101930.339;;;20.8;48.0
73422;BME280;61637;47.760;-122.022;2023-06-26T03:24:00;101930.339;;;20.8;48.0
73422;BME280;61637;47.760;-122.022;2023-06-26T03:26:00;101591.7;;;20.7;48.0
73422;BME280;61637;47.760;-122.022;2023-06-26T03:28:00;101591.7;;;20.7;48.0
73422;BME280;61637;47.760;-122.022;2023-06-26T03:30:01;101591.7;;;20.6;48.0
73422;BME280;61637;47.760;-122.022;2023-06-26T03:32:00;101591.7;;;20.6;48.0
73422;BME280;61637;47.760;-122.022;2023-06-26T03:34:01;101591.7;;;20.6;48.0
73422;BME280;61637;47.760;-122.022;2023-06-26T03:36:00;101591.7;;;20.4;48.0
73422;BME280;61637;47.760;-122.022;2023-06-26T03:38:01;101591.7;;;20.4;48.0
73422;BME280;61637;47.760;-122.022;2023-06-26T03:40:00;101591.7;;;20.3;48.0
73422;BME280;61637;47.760;-122.022;2023-06-26T03:42:01;101591.7;;;20.2;48.0
73422;BME280;61637;47.760;-122.022;2023-06-26T03:44:00;101591.7;;;20.2;48.0
73422;BME280;61637;47.760;-122.022;2023-06-26T03:46:00;101591.7;;;20.1;48.0
73422;BME280;61637;47.760;-122.022;2023-06-26T03:48:00;101591.7;;;20.0;48.0
73422;BME280;61637;47.760;-122.022;2023-06-26T03:50:00;101591.7;;;19.9;48.0
73422;BME280;61637;47.760;-122.022;2023-06-26T03:52:00;101591.7;;;19.9;48.0
73422;BME280;61637;47.760;-122.022;2023-06-26T03:54:01;101591.7;;;19.8;48.0
73422;BME280;61637;47.760;-122.022;2023-06-26T03:56:01;101591.7;;;19.7;48.0
73422;BME280;61637;47.760;-122.022;2023-06-26T03:58:00;101591.7;;;19.7;48.0
73422;BME280;61637;47.760;-122.022;2023-06-26T04:00:00;101591.7;;;19.6;48.0
73422;BME280;61637;47.760;-122.022;2023-06-26T04:02:00;101591.7;;;19.6;48.0
73422;BME280;61637;47.760;-122.022;2023-06-26T04:04:00;101591.7;;;19.6;48.0
73422;BME280;61637;47.760;-122.022;2023-06-26T04:06:01;101591.7;;;19.5;48.0
73422;BME280;61637;47.760;-122.022;2023-06-26T04:08:00;101591.7;;;19.4;48.0
73422;BME280;61637;47.760;-122.022;2023-06-26T04:10:00;101591.7;;;19.4;48.0
73422;BME280;61637;47.760;-122.022;2023-06-26T04:12:00;101591.7;;;19.3;48.0
73422;BME280;61637;47.760;-122.022;2023-06-26T04:14:00;101591.7;;;19.2;48.0
73422;BME280;61637;47.760;-122.022;2023-06-26T04:16:00;101591.7;;;19.2;48.0
73422;BME280;61637;47.760;-122.022;2023-06-26T04:18:01;101591.7;;;19.1;48.0
73422;BME280;61637;47.760;-122.022;2023-06-26T04:20:00;101591.7;;;19.1;48.0
73422;BME280;61637;47.760;-122.022;2023-06-26T04:22:00;101930.339;;;18.9;48.0
73422;BME280;61637;47.760;-122.022;2023-06-26T04:24:00;101591.7;;;18.9;48.0
73422;BME280;61637;47.760;-122.022;2023-06-26T04:26:00;101591.7;;;18.8;48.0
73422;BME280;61637;47.760;-122.022;2023-06-26T04:28:00;101930.339;;;18.8;48.0
73422;BME280;61637;47.760;-122.022;2023-06-26T04:30:01;101930.339;;;18.7;48.0
73422;BME280;61637;47.760;-122.022;2023-06-26T04:32:00;101930.339;;;18.7;48.0
73422;BME280;61637;47.760;-122.022;2023-06-26T04:34:00;101930.339;;;18.6;48.0
73422;BME280;61637;47.760;-122.022;2023-06-26T04:36:00;101930.339;;;18.5;48.0
73422;BME280;61637;47.760;-122.022;2023-06-26T04:38:00;101930.339;;;18.4;48.0
73422;BME280;61637;47.760;-122.022;2023-06-26T04:40:00;101930.339;;;18.3;48.0
73422;BME280;61637;47.760;-122.022;2023-06-26T04:42:01;101930.339;;;18.2;48.0
73422;BME280;61637;47.760;-122.022;2023-06-26T04:44:00;101930.339;;;18.2;48.0
73422;BME280;61637;47.760;-122.022;2023-06-26T04:46:02;101930.339;;;18.1;48.0
73422;BME280;61637;47.760;-122.022;2023-06-26T04:48:00;101930.339;;;18.1;48.0
73422;BME280;61637;47.760;-122.022;2023-06-26T04:50:00;101930.339;;;18.0;48.0
73422;BME280;61637;47.760;-122.022;2023-06-26T04:52:00;101930.339;;;18.0;48.0
73422;BME280;61637;47.760;-122.022;2023-06-26T04:54:01;101930.339;;;17.9;48.0
73422;BME280;61637;47.760;-122.022;2023-06-26T04:56:00;101930.339;;;17.9;48.0
73422;BME280;61637;47.760;-122.022;2023-06-26T04:58:00;101930.339;;;17.8;48.0
73422;BME280;61637;47.760;-122.022;2023-06-26T05:00:00;101930.339;;;17.8;48.0
73422;BME280;61637;47.760;-122.022;2023-06-26T05:02:00;101930.339;;;17.7;48.0
73422;BME280;61637;47.760;-122.022;2023-06-26T05:04:00;101930.339;;;17.7;48.0
73422;BME280;61637;47.760;-122.022;2023-06-26T05:06:01;101930.339;;;17.7;48.0
73422;BME280;61637;47.760;-122.022;2023-06-26T05:08:12;101930.339;;;17.7;48.0
73422;BME280;61637;47.760;-122.022;2023-06-26T05:10:00;101930.339;;;17.6;48.0
73422;BME280;61637;47.760;-122.022;2023-06-26T05:12:01;101930.339;;;17.6;48.0
73422;BME280;61637;47.760;-122.022;2023-06-26T05:14:00;101930.339;;;17.6;48.0
73422;BME280;61637;47.760;-122.022;2023-06-26T05:16:00;101930.339;;;17.5;48.0
73422;BME280;61637;47.760;-122.022;2023-06-26T05:18:01;101930.339;;;17.4;48.0
73422;BME280;61637;47.760;-122.022;2023-06-26T05:20:00;101930.339;;;17.4;48.0
73422;BME280;61637;47.760;-122.022;2023-06-26T05:22:00;101930.339;;;17.4;48.0
73422;BME280;61637;47.760;-122.022;2023-06-26T05:24:01;101930.339;;;17.4;48.0
73422;BME280;61637;47.760;-122.022;2023-06-26T05:26:01;101930.339;;;17.3;48.0
73422;BME280;61637;47.760;-122.022;2023-06-26T05:28:01;101930.339;;;17.3;48.0
73422;BME280;61637;47.760;-122.022;2023-06-26T05:30:01;101930.339;;;17.2;48.0
73422;BME280;61637;47.760;-122.022;2023-06-26T05:32:01;101930.339;;;17.2;48.0
73422;BME280;61637;47.760;-122.022;2023-06-26T05:34:00;101930.339;;;17.2;48.0
73422;BME280;61637;47.760;-122.022;2023-06-26T05:36:00;101930.339;;;17.1;48.0
73422;BME280;61637;47.760;-122.022;2023-06-26T05:38:00;101930.339;;;17.1;48.0
73422;BME280;61637;47.760;-122.022;2023-06-26T05:40:01;101930.339;;;17.0;48.0
73422;BME280;61637;47.760;-122.022;2023-06-26T05:42:01;101930.339;;;16.9;48.0
73422;BME280;61637;47.760;-122.022;2023-06-26T05:44:00;101930.339;;;16.9;48.0
73422;BME280;61637;47.760;-122.022;2023-06-26T05:46:00;101930.339;;;16.8;48.0
73422;BME280;61637;47.760;-122.022;2023-06-26T05:48:00;101930.339;;;16.8;48.0
73422;BME280;61637;47.760;-122.022;2023-06-26T05:50:01;101930.339;;;16.8;48.0
73422;BME280;61637;47.760;-122.022;2023-06-26T05:52:01;101930.339;;;16.7;48.0
73422;BME280;61637;47.760;-122.022;2023-06-26T05:54:01;101930.339;;;16.6;48.0
73422;BME280;61637;47.760;-122.022;2023-06-26T05:56:01;101930.339;;;16.6;48.0
73422;BME280;61637;47.760;-122.022;2023-06-26T05:58:00;101930.339;;;16.4;48.0
73422;BME280;61637;47.760;-122.022;2023-06-26T06:00:01;101930.339;;;16.4;48.0
73422;BME280;61637;47.760;-122.022;2023-06-26T06:02:00;101930.339;;;16.3;48.0
73422;BME280;61637;47.760;-122.022;2023-06-26T06:04:00;101930.339;;;16.3;48.0
73422;BME280;61637;47.760;-122.022;2023-06-26T06:06:01;101930.339;;;16.3;48.0
73422;BME280;61637;47.760;-122.022;2023-06-26T06:08:00;101930.339;;;16.3;43.8
73422;BME280;61637;47.760;-122.022;2023-06-26T06:10:00;101930.339;;;16.3;43.6
73422;BME280;61637;47.760;-122.022;2023-06-26T06:12:00;101930.339;;;16.3;43.1
73422;BME280;61637;47.760;-122.022;2023-06-26T06:14:00;101930.339;;;16.2;42.9
73422;BME280;61637;47.760;-122.022;2023-06-26T06:16:00;101930.339;;;16.2;44.5
73422;BME280;61637;47.760;-122.022;2023-06-26T06:18:01;101930.339;;;16.2;44.7
73422;BME280;61637;47.760;-122.022;2023-06-26T06:20:00;101930.339;;;16.1;43.7
73422;BME280;61637;47.760;-122.022;2023-06-26T06:22:00;101930.339;;;16.1;43.9
73422;BME280;61637;47.760;-122.022;2023-06-26T06:24:00;101930.339;;;16.1;43.8
73422;BME280;61637;47.760;-122.022;2023-06-26T06:26:00;101930.339;;;16.1;43.6
73422;BME280;61637;47.760;-122.022;2023-06-26T06:28:00;101930.339;;;16.0;44.5
73422;BME280;61637;47.760;-122.022;2023-06-26T06:30:01;101930.339;;;15.9;44.9
73422;BME280;61637;47.760;-122.022;2023-06-26T06:32:00;101930.339;;;15.9;44.9
73422;BME280;61637;47.760;-122.022;2023-06-26T06:34:00;101930.339;;;15.9;44.8
73422;BME280;61637;47.760;-122.022;2023-06-26T06:36:00;101930.339;;;15.9;44.7
73422;BME280;61637;47.760;-122.022;2023-06-26T06:38:00;101930.339;;;15.8;43.6
73422;BME280;61637;47.760;-122.022;2023-06-26T06:40:00;101930.339;;;15.8;43.0
73422;BME280;61637;47.760;-122.022;2023-06-26T06:42:01;101930.339;;;15.8;43.9
73422;BME280;61637;47.760;-122.022;2023-06-26T06:44:00;101930.339;;;15.7;44.6
73422;BME280;61637;47.760;-122.022;2023-06-26T06:46:00;101930.339;;;15.7;44.3
73422;BME280;61637;47.760;-122.022;2023-06-26T06:48:00;101930.339;;;15.7;45.4
73422;BME280;61637;47.760;-122.022;2023-06-26T06:50:00;101930.339;;;15.7;46.1
73422;BME280;61637;47.760;-122.022;2023-06-26T06:52:00;101930.339;;;15.7;44.0
73422;BME280;61637;47.760;-122.022;2023-06-26T06:54:01;101930.339;;;15.6;45.0
73422;BME280;61637;47.760;-122.022;2023-06-26T06:56:00;101930.339;;;15.6;44.8
73422;BME280;61637;47.760;-122.022;2023-06-26T06:58:00;101930.339;;;15.5;44.4
73422;BME280;61637;47.760;-122.022;2023-06-26T07:00:00;101930.339;;;15.4;45.8
73422;BME280;61637;47.760;-122.022;2023-06-26T07:02:00;101930.339;;;15.4;45.4
73422;BME280;61637;47.760;-122.022;2023-06-26T07:04:00;101930.339;;;15.4;45.8
73422;BME280;61637;47.760;-122.022;2023-06-26T07:06:02;101930.339;;;15.4;45.1
73422;BME280;61637;47.760;-122.022;2023-06-26T07:08:00;101930.339;;;15.3;45.3
73422;BME280;61637;47.760;-122.022;2023-06-26T07:10:01;101930.339;;;15.3;44.4
73422;BME280;61637;47.760;-122.022;2023-06-26T07:12:00;101930.339;;;15.3;45.1
73422;BME280;61637;47.760;-122.022;2023-06-26T07:14:00;101930.339;;;15.3;46.0
73422;BME280;61637;47.760;-122.022;2023-06-26T07:16:00;101930.339;;;15.3;46.1
73422;BME280;61637;47.760;-122.022;2023-06-26T07:18:01;101930.339;;;15.3;46.0
73422;BME280;61637;47.760;-122.022;2023-06-26T07:20:00;101930.339;;;15.3;46.0
73422;BME280;61637;47.760;-122.022;2023-06-26T07:22:00;101930.339;;;15.3;45.4
73422;BME280;61637;47.760;-122.022;2023-06-26T07:24:00;101930.339;;;15.3;46.5
73422;BME280;61637;47.760;-122.022;2023-06-26T07:26:00;101930.339;;;15.2;47.5
73422;BME280;61637;47.760;-122.022;2023-06-26T07:28:00;101930.339;;;15.3;47.6
73422;BME280;61637;47.760;-122.022;2023-06-26T07:30:01;101930.339;;;15.2;47.3
73422;BME280;61637;47.760;-122.022;2023-06-26T07:32:00;101930.339;;;15.3;47.2
73422;BME280;61637;47.760;-122.022;2023-06-26T07:34:00;101930.339;;;15.3;47.6
73422;BME280;61637;47.760;-122.022;2023-06-26T07:36:00;101930.339;;;15.3;47.6
73422;BME280;61637;47.760;-122.022;2023-06-26T07:38:00;101930.339;;;15.3;48.9
73422;BME280;61637;47.760;-122.022;2023-06-26T07:40:01;101930.339;;;15.2;47.8
73422;BME280;61637;47.760;-122.022;2023-06-26T07:42:01;101930.339;;;15.2;47.5
73422;BME280;61637;47.760;-122.022;2023-06-26T07:44:00;101930.339;;;15.2;46.4
73422;BME280;61637;47.760;-122.022;2023-06-26T07:46:00;101930.339;;;15.2;45.5
73422;BME280;61637;47.760;-122.022;2023-06-26T07:48:00;101930.339;;;15.2;46.9
73422;BME280;61637;47.760;-122.022;2023-06-26T07:50:00;101930.339;;;15.1;48.0
73422;BME280;61637;47.760;-122.022;2023-06-26T07:52:00;101930.339;;;15.1;46.8
73422;BME280;61637;47.760;-122.022;2023-06-26T07:54:01;101930.339;;;15.1;46.8
73422;BME280;61637;47.760;-122.022;2023-06-26T07:56:00;101930.339;;;15.1;45.3
73422;BME280;61637;47.760;-122.022;2023-06-26T07:58:00;101930.339;;;15.1;44.5
73422;BME280;61637;47.760;-122.022;2023-06-26T08:00:00;101930.339;;;15.0;45.4
73422;BME280;61637;47.760;-122.022;2023-06-26T08:02:00;101930.339;;;15.0;46.1
73422;BME280;61637;47.760;-122.022;2023-06-26T08:04:00;101930.339;;;15.0;45.3
73422;BME280;61637;47.760;-122.022;2023-06-26T08:06:01;101930.339;;;15.0;46.2
73422;BME280;61637;47.760;-122.022;2023-06-26T08:08:00;101930.339;;;14.9;45.5
73422;BME280;61637;47.760;-122.022;2023-06-26T08:10:00;101930.339;;;15.0;45.1
73422;BME280;61637;47.760;-122.022;2023-06-26T08:12:00;101930.339;;;15.0;44.2
73422;BME280;61637;47.760;-122.022;2023-06-26T08:14:00;101930.339;;;15.1;43.6
73422;BME280;61637;47.760;-122.022;2023-06-26T08:16:00;101930.339;;;15.1;43.8
73422;BME280;61637;47.760;-122.022;2023-06-26T08:18:01;101930.339;;;15.1;43.5
73422;BME280;61637;47.760;-122.022;2023-06-26T08:20:00;101930.339;;;15.1;45.0
73422;BME280;61637;47.760;-122.022;2023-06-26T08:22:00;101930.339;;;15.1;45.7
73422;BME280;61637;47.760;-122.022;2023-06-26T08:24:01;101930.339;;;15.1;45.6
73422;BME280;61637;47.760;-122.022;2023-06-26T08:26:00;101930.339;;;15.0;45.0
73422;BME280;61637;47.760;-122.022;2023-06-26T08:28:00;101930.339;;;15.0;45.0
73422;BME280;61637;47.760;-122.022;2023-06-26T08:30:01;101930.339;;;15.0;45.2
73422;BME280;61637;47.760;-122.022;2023-06-26T08:32:01;101930.339;;;14.9;44.9
73422;BME280;61637;47.760;-122.022;2023-06-26T08:34:00;101930.339;;;14.9;45.4
73422;BME280;61637;47.760;-122.022;2023-06-26T08:36:00;101930.339;;;14.9;44.4
73422;BME280;61637;47.760;-122.022;2023-06-26T08:38:00;101930.339;;;14.9;43.7
73422;BME280;61637;47.760;-122.022;2023-06-26T08:40:00;101930.339;;;14.9;45.2
73422;BME280;61637;47.760;-122.022;2023-06-26T08:42:01;101930.339;;;14.9;45.4
73422;BME280;61637;47.760;-122.022;2023-06-26T08:44:00;101930.339;;;14.9;45.8
73422;BME280;61637;47.760;-122.022;2023-06-26T08:46:01;101930.339;;;14.8;44.6
73422;BME280;61637;47.760;-122.022;2023-06-26T08:48:00;101930.339;;;14.8;43.4
73422;BME280;61637;47.760;-122.022;2023-06-26T08:50:03;101930.339;;;14.8;44.9
73422;BME280;61637;47.760;-122.022;2023-06-26T08:52:02;101930.339;;;14.8;44.0
73422;BME280;61637;47.760;-122.022;2023-06-26T08:54:01;101930.339;;;14.7;44.1
73422;BME280;61637;47.760;-122.022;2023-06-26T08:56:00;101930.339;;;14.7;45.4
73422;BME280;61637;47.760;-122.022;2023-06-26T08:58:00;101930.339;;;14.7;44.4
73422;BME280;61637;47.760;-122.022;2023-06-26T09:00:00;101930.339;;;14.7;44.7
73422;BME280;61637;47.760;-122.022;2023-06-26T09:02:00;101930.339;;;14.6;43.7
73422;BME280;61637;47.760;-122.022;2023-06-26T09:04:00;101930.339;;;14.6;42.7
73422;BME280;61637;47.760;-122.022;2023-06-26T09:06:01;101930.339;;;14.5;45.3
73422;BME280;61637;47.760;-122.022;2023-06-26T09:08:00;101930.339;;;14.5;44.8
73422;BME280;61637;47.760;-122.022;2023-06-26T09:10:00;101930.339;;;14.4;44.2
73422;BME280;61637;47.760;-122.022;2023-06-26T09:12:01;101930.339;;;14.4;43.0
73422;BME280;61637;47.760;-122.022;2023-06-26T09:14:00;101930.339;;;14.3;43.6
73422;BME280;61637;47.760;-122.022;2023-06-26T09:16:03;101930.339;;;14.3;43.9
73422;BME280;61637;47.760;-122.022;2023-06-26T09:18:01;101930.339;;;14.3;45.8
73422;BME280;61637;47.760;-122.022;2023-06-26T09:20:00;101930.339;;;14.3;48.2
73422;BME280;61637;47.760;-122.022;2023-06-26T09:22:00;101930.339;;;14.2;47.6
73422;BME280;61637;47.760;-122.022;2023-06-26T09:24:00;101930.339;;;14.2;46.2
73422;BME280;61637;47.760;-122.022;2023-06-26T09:26:02;101930.339;;;14.1;47.4
73422;BME280;61637;47.760;-122.022;2023-06-26T09:28:00;101930.339;;;14.1;51.4
73422;BME280;61637;47.760;-122.022;2023-06-26T09:30:01;101930.339;;;14.1;52.3
73422;BME280;61637;47.760;-122.022;2023-06-26T09:32:00;101930.339;;;14.0;51.6
73422;BME280;61637;47.760;-122.022;2023-06-26T09:34:00;101930.339;;;13.9;53.5
73422;BME280;61637;47.760;-122.022;2023-06-26T09:36:00;101930.339;;;13.9;50.6
73422;BME280;61637;47.760;-122.022;2023-06-26T09:38:00;101930.339;;;13.9;51.3
73422;BME280;61637;47.760;-122.022;2023-06-26T09:40:00;101930.339;;;13.9;49.7
73422;BME280;61637;47.760;-122.022;2023-06-26T09:42:01;101930.339;;;13.8;51.3
73422;BME280;61637;47.760;-122.022;2023-06-26T09:44:01;101930.339;;;13.7;48.4
73422;BME280;61637;47.760;-122.022;2023-06-26T09:46:00;101930.339;;;13.7;47.9
73422;BME280;61637;47.760;-122.022;2023-06-26T09:48:00;101930.339;;;13.7;47.0
73422;BME280;61637;47.760;-122.022;2023-06-26T09:50:02;101930.339;;;13.6;49.1
73422;BME280;61637;47.760;-122.022;2023-06-26T09:52:01;101930.339;;;13.6;50.2
73422;BME280;61637;47.760;-122.022;2023-06-26T09:54:01;101930.339;;;13.6;52.1
73422;BME280;61637;47.760;-122.022;2023-06-26T09:56:05;101930.339;;;13.5;48.8
73422;BME280;61637;47.760;-122.022;2023-06-26T09:58:00;101930.339;;;13.5;46.6
73422;BME280;61637;47.760;-122.022;2023-06-26T10:00:00;101930.339;;;13.4;45.7
73422;BME280;61637;47.760;-122.022;2023-06-26T10:02:00;101930.339;;;13.4;46.7
73422;BME280;61637;47.760;-122.022;2023-06-26T10:04:00;101930.339;;;13.4;45.2
73422;BME280;61637;47.760;-122.022;2023-06-26T10:06:01;101930.339;;;13.4;45.3
73422;BME280;61637;47.760;-122.022;2023-06-26T10:08:00;101930.339;;;13.3;44.6
73422;BME280;61637;47.760;-122.022;2023-06-26T10:10:00;101930.339;;;13.3;44.9
73422;BME280;61637;47.760;-122.022;2023-06-26T10:12:01;101930.339;;;13.2;45.5
73422;BME280;61637;47.760;-122.022;2023-06-26T10:14:01;101930.339;;;13.2;45.8